Hsc Superjet — IINO — position and weather

sailwx.info

Track history (hours):
 
Tides and Currents Weather Stations Pressure Air Temp Water Temp Dewpoint Dewpoint Depression Visibility Wind Speed Wind Dir Waves Ship Positions

Hsc Superjet

Last reported at 2015-Sep-04 09:33 UTC. Time now 2015-Sep-04 10:28 UTC.
Position N 40°39' E 014°16'.

Length 44 m; draft 1.4 m.

Type: High speed craft. MMSI: 247540000.

Date/timePositionNaut miles runAvg speedWind from/ knotsBaromVisibWave heightAir tempDewpointWater temp
2015-Sep-04 09:33N 40°39' E 014°16'9 8.8
2015-Sep-04 08:32N 40°48' E 014°18'10 9.0
2015-Sep-04 07:26N 40°38' E 014°16'5 0.3
2015-Sep-03 15:33N 40°43' E 014°16'9 8.9
2015-Sep-03 14:29N 40°33' E 014°14'16 7.7
2015-Sep-03 12:26N 40°49' E 014°17'1618.3
2015-Sep-03 11:33N 40°33' E 014°14'0 0.0
2015-Sep-03 10:33N 40°33' E 014°14'1714.0
2015-Sep-03 09:22N 40°50' E 014°17'1719.5
2015-Sep-03 08:31N 40°33' E 014°14'17 1.0
2015-Sep-02 15:23N 40°50' E 014°16'1718.7
2015-Sep-02 14:29N 40°33' E 014°14'0 0.1
2015-Sep-02 13:33N 40°33' E 014°14'1715.1
2015-Sep-02 12:27N 40°50' E 014°16'1715.5
2015-Sep-02 11:22N 40°33' E 014°14'0 0.0
2015-Sep-02 10:32N 40°33' E 014°14'10 0.5
2015-Sep-01 15:33N 40°43' E 014°17'10 9.2
2015-Sep-01 14:32N 40°33' E 014°15'16 0.7
2015-Aug-31 15:20N 40°50' E 014°17'1618.1
2015-Aug-31 14:26N 40°33' E 014°14'0 0.0
2015-Aug-31 13:32N 40°33' E 014°14'17 8.5
2015-Aug-31 11:34N 40°50' E 014°16'1716.7
2015-Aug-31 10:33N 40°33' E 014°14'1711.9
2015-Aug-31 09:08N 40°50' E 014°15'0 0.2
2015-Aug-31 07:33N 40°50' E 014°16'0 0.0
2015-Aug-30 22:31N 40°50' E 014°16'3 0.8
2015-Aug-30 18:33N 40°47' E 014°17'10 9.9
2015-Aug-30 17:32N 40°37' E 014°16'1311.6
2015-Aug-30 16:24N 40°50' E 014°15'9 9.2
2015-Aug-30 15:27N 40°42' E 014°17'8 8.6
2015-Aug-30 14:28N 40°33' E 014°14'1714.9
2015-Aug-30 13:20N 40°50' E 014°15'0 0.2
2015-Aug-30 12:33N 40°50' E 014°16'1716.8
2015-Aug-30 11:33N 40°33' E 014°14'0 0.3
2015-Aug-30 10:33N 40°34' E 014°15'1715.9
2015-Aug-30 09:30N 40°50' E 014°15'0 0.1
2015-Aug-30 07:24N 40°50' E 014°16'0 0.0
2015-Aug-30 06:05N 40°50' E 014°16'0 0.0
2015-Aug-30 05:33N 40°50' E 014°16'8 0.6
2015-Aug-29 15:32N 40°42' E 014°17'8 8.5
2015-Aug-29 14:33N 40°34' E 014°15'0 0.3
2015-Aug-29 13:33N 40°33' E 014°14'0 0.0
2015-Aug-29 12:33N 40°33' E 014°14'4 4.1
2015-Aug-29 11:30N 40°37' E 014°16'11 8.8
2015-Aug-29 10:17N 40°48' E 014°17'1519.3
2015-Aug-29 09:30N 40°33' E 014°14'0 0.0
2015-Aug-29 08:32N 40°33' E 014°14'16 1.1
2015-Aug-28 17:28N 40°49' E 014°17'1617.8
2015-Aug-28 16:33N 40°33' E 014°14'1512.6
2015-Aug-28 15:20N 40°49' E 014°17'1519.9
2015-Aug-28 14:33N 40°33' E 014°14'0 0.0
2015-Aug-28 13:32N 40°33' E 014°14'8 7.7
2015-Aug-28 12:32N 40°38' E 014°23'8 6.5
2015-Aug-28 11:21N 40°33' E 014°14'0 0.0
2015-Aug-28 10:30N 40°33' E 014°14'0 0.3
2015-Aug-28 09:34N 40°34' E 014°15'1512.9
2015-Aug-28 08:22N 40°49' E 014°17'1518.2
2015-Aug-28 07:31N 40°33' E 014°15'8 0.5
2015-Aug-27 15:31N 40°42' E 014°17'8 8.4
2015-Aug-27 14:31N 40°33' E 014°14'16 7.6
2015-Aug-27 12:26N 40°49' E 014°17'1618.0
2015-Aug-27 11:33N 40°33' E 014°14'0 0.0
2015-Aug-27 10:32N 40°33' E 014°14'0 0.0
2015-Aug-27 09:33N 40°33' E 014°14'12 0.7
2015-Aug-26 15:12N 40°45' E 014°18'1217.3
2015-Aug-26 14:29N 40°33' E 014°14'0 0.0
2015-Aug-26 13:32N 40°33' E 014°14'8 6.8
2015-Aug-26 12:24N 40°38' E 014°23'8 8.3
2015-Aug-26 11:29N 40°33' E 014°14'0 0.0
2015-Aug-26 10:33N 40°33' E 014°14'16 0.8
2015-Aug-25 15:25N 40°49' E 014°18'1618.5
2015-Aug-25 14:33N 40°33' E 014°14'0 0.0
2015-Aug-25 13:32N 40°33' E 014°14'0 0.0
2015-Aug-25 12:32N 40°33' E 014°14'7 6.5
2015-Aug-25 11:29N 40°39' E 014°19'10 8.5
2015-Aug-25 10:20N 40°49' E 014°17'  
Track history (hours):
 
Tides and Currents Weather Stations Pressure Air Temp Water Temp Dewpoint Dewpoint Depression Visibility Wind Speed Wind Dir Waves Ship Positions

Hsc Superjet

Last reported at 2015-Sep-04 09:33 UTC. Time now 2015-Sep-04 10:28 UTC.
Position N 40°39' E 014°16'.

Length 44 m; draft 1.4 m.

Type: High speed craft. MMSI: 247540000.

Date/timePositionNaut miles runAvg speedWind from/ knotsBaromVisibWave heightAir tempDewpointWater temp
2015-Sep-04 09:33N 40°39' E 014°16'9 8.8
2015-Sep-04 08:32N 40°48' E 014°18'10 9.0
2015-Sep-04 07:26N 40°38' E 014°16'5 0.3
2015-Sep-03 15:33N 40°43' E 014°16'9 8.9
2015-Sep-03 14:29N 40°33' E 014°14'16 7.7
2015-Sep-03 12:26N 40°49' E 014°17'1618.3
2015-Sep-03 11:33N 40°33' E 014°14'0 0.0
2015-Sep-03 10:33N 40°33' E 014°14'1714.0
2015-Sep-03 09:22N 40°50' E 014°17'1719.5
2015-Sep-03 08:31N 40°33' E 014°14'17 1.0
2015-Sep-02 15:23N 40°50' E 014°16'1718.7
2015-Sep-02 14:29N 40°33' E 014°14'0 0.1
2015-Sep-02 13:33N 40°33' E 014°14'1715.1
2015-Sep-02 12:27N 40°50' E 014°16'1715.5
2015-Sep-02 11:22N 40°33' E 014°14'0 0.0
2015-Sep-02 10:32N 40°33' E 014°14'10 0.5
2015-Sep-01 15:33N 40°43' E 014°17'10 9.2
2015-Sep-01 14:32N 40°33' E 014°15'16 0.7
2015-Aug-31 15:20N 40°50' E 014°17'1618.1
2015-Aug-31 14:26N 40°33' E 014°14'0 0.0
2015-Aug-31 13:32N 40°33' E 014°14'17 8.5
2015-Aug-31 11:34N 40°50' E 014°16'1716.7
2015-Aug-31 10:33N 40°33' E 014°14'1711.9
2015-Aug-31 09:08N 40°50' E 014°15'0 0.2
2015-Aug-31 07:33N 40°50' E 014°16'0 0.0
2015-Aug-30 22:31N 40°50' E 014°16'3 0.8
2015-Aug-30 18:33N 40°47' E 014°17'10 9.9
2015-Aug-30 17:32N 40°37' E 014°16'1311.6
2015-Aug-30 16:24N 40°50' E 014°15'9 9.2
2015-Aug-30 15:27N 40°42' E 014°17'8 8.6
2015-Aug-30 14:28N 40°33' E 014°14'1714.9
2015-Aug-30 13:20N 40°50' E 014°15'0 0.2
2015-Aug-30 12:33N 40°50' E 014°16'1716.8
2015-Aug-30 11:33N 40°33' E 014°14'0 0.3
2015-Aug-30 10:33N 40°34' E 014°15'1715.9
2015-Aug-30 09:30N 40°50' E 014°15'0 0.1
2015-Aug-30 07:24N 40°50' E 014°16'0 0.0
2015-Aug-30 06:05N 40°50' E 014°16'0 0.0
2015-Aug-30 05:33N 40°50' E 014°16'8 0.6
2015-Aug-29 15:32N 40°42' E 014°17'8 8.5
2015-Aug-29 14:33N 40°34' E 014°15'0 0.3
2015-Aug-29 13:33N 40°33' E 014°14'0 0.0
2015-Aug-29 12:33N 40°33' E 014°14'4 4.1
2015-Aug-29 11:30N 40°37' E 014°16'11 8.8
2015-Aug-29 10:17N 40°48' E 014°17'1519.3
2015-Aug-29 09:30N 40°33' E 014°14'0 0.0
2015-Aug-29 08:32N 40°33' E 014°14'16 1.1
2015-Aug-28 17:28N 40°49' E 014°17'1617.8
2015-Aug-28 16:33N 40°33' E 014°14'1512.6
2015-Aug-28 15:20N 40°49' E 014°17'1519.9
2015-Aug-28 14:33N 40°33' E 014°14'0 0.0
2015-Aug-28 13:32N 40°33' E 014°14'8 7.7
2015-Aug-28 12:32N 40°38' E 014°23'8 6.5
2015-Aug-28 11:21N 40°33' E 014°14'0 0.0
2015-Aug-28 10:30N 40°33' E 014°14'0 0.3
2015-Aug-28 09:34N 40°34' E 014°15'1512.9
2015-Aug-28 08:22N 40°49' E 014°17'1518.2
2015-Aug-28 07:31N 40°33' E 014°15'8 0.5
2015-Aug-27 15:31N 40°42' E 014°17'8 8.4
2015-Aug-27 14:31N 40°33' E 014°14'16 7.6
2015-Aug-27 12:26N 40°49' E 014°17'1618.0
2015-Aug-27 11:33N 40°33' E 014°14'0 0.0
2015-Aug-27 10:32N 40°33' E 014°14'0 0.0
2015-Aug-27 09:33N 40°33' E 014°14'12 0.7
2015-Aug-26 15:12N 40°45' E 014°18'1217.3
2015-Aug-26 14:29N 40°33' E 014°14'0 0.0
2015-Aug-26 13:32N 40°33' E 014°14'8 6.8
2015-Aug-26 12:24N 40°38' E 014°23'8 8.3
2015-Aug-26 11:29N 40°33' E 014°14'0 0.0
2015-Aug-26 10:33N 40°33' E 014°14'16 0.8
2015-Aug-25 15:25N 40°49' E 014°18'1618.5
2015-Aug-25 14:33N 40°33' E 014°14'0 0.0
2015-Aug-25 13:32N 40°33' E 014°14'0 0.0
2015-Aug-25 12:32N 40°33' E 014°14'7 6.5
2015-Aug-25 11:29N 40°39' E 014°19'10 8.5
2015-Aug-25 10:20N 40°49' E 014°17'  

Dump ship's entire track history